sensor_id;sensor_type;location;lat;lon;timestamp;temperature;humidity
6879;DHT22;3478;51.462;7.338;2023-09-12T00:01:43;22.20;99.90
6879;DHT22;3478;51.462;7.338;2023-09-12T00:06:45;22.10;99.90
6879;DHT22;3478;51.462;7.338;2023-09-12T00:11:48;21.90;99.90
6879;DHT22;3478;51.462;7.338;2023-09-12T00:16:50;21.70;99.90
6879;DHT22;3478;51.462;7.338;2023-09-12T00:21:56;21.70;99.90
6879;DHT22;3478;51.462;7.338;2023-09-12T00:26:59;21.60;99.90
6879;DHT22;3478;51.462;7.338;2023-09-12T00:32:01;21.60;99.90
6879;DHT22;3478;51.462;7.338;2023-09-12T00:37:04;21.70;99.90
6879;DHT22;3478;51.462;7.338;2023-09-12T00:42:07;21.70;99.90
6879;DHT22;3478;51.462;7.338;2023-09-12T00:47:11;21.70;99.90
6879;DHT22;3478;51.462;7.338;2023-09-12T00:52:14;21.50;99.90
6879;DHT22;3478;51.462;7.338;2023-09-12T00:57:18;21.40;99.90
6879;DHT22;3478;51.462;7.338;2023-09-12T01:02:20;21.40;99.90
6879;DHT22;3478;51.462;7.338;2023-09-12T01:07:23;21.30;99.90
6879;DHT22;3478;51.462;7.338;2023-09-12T01:12:26;21.30;99.90
6879;DHT22;3478;51.462;7.338;2023-09-12T01:17:28;21.30;99.90
6879;DHT22;3478;51.462;7.338;2023-09-12T01:22:52;21.50;99.90
6879;DHT22;3478;51.462;7.338;2023-09-12T01:28:01;21.40;99.90
6879;DHT22;3478;51.462;7.338;2023-09-12T01:33:04;21.30;99.90
6879;DHT22;3478;51.462;7.338;2023-09-12T01:38:06;21.30;99.90
6879;DHT22;3478;51.462;7.338;2023-09-12T01:43:10;21.40;99.90
6879;DHT22;3478;51.462;7.338;2023-09-12T01:48:13;21.40;99.90
6879;DHT22;3478;51.462;7.338;2023-09-12T01:53:16;21.50;99.90
6879;DHT22;3478;51.462;7.338;2023-09-12T01:58:20;21.50;99.90
6879;DHT22;3478;51.462;7.338;2023-09-12T02:03:22;21.50;99.90
6879;DHT22;3478;51.462;7.338;2023-09-12T02:08:24;21.40;99.90
6879;DHT22;3478;51.462;7.338;2023-09-12T02:13:27;21.40;99.90
6879;DHT22;3478;51.462;7.338;2023-09-12T02:18:29;21.30;99.90
6879;DHT22;3478;51.462;7.338;2023-09-12T02:23:31;21.30;99.90
6879;DHT22;3478;51.462;7.338;2023-09-12T02:28:34;21.20;99.90
6879;DHT22;3478;51.462;7.338;2023-09-12T02:33:36;21.10;99.90
6879;DHT22;3478;51.462;7.338;2023-09-12T02:38:38;21.20;99.90
6879;DHT22;3478;51.462;7.338;2023-09-12T02:43:42;21.30;99.90
6879;DHT22;3478;51.462;7.338;2023-09-12T02:48:43;21.30;99.90
6879;DHT22;3478;51.462;7.338;2023-09-12T02:53:45;21.20;99.90
6879;DHT22;3478;51.462;7.338;2023-09-12T02:58:49;21.10;99.90
6879;DHT22;3478;51.462;7.338;2023-09-12T03:03:51;21.10;99.90
6879;DHT22;3478;51.462;7.338;2023-09-12T03:08:53;21.10;99.90
6879;DHT22;3478;51.462;7.338;2023-09-12T03:13:56;21.10;99.90
6879;DHT22;3478;51.462;7.338;2023-09-12T03:18:58;21.10;99.90
6879;DHT22;3478;51.462;7.338;2023-09-12T03:24:01;21.10;99.90
6879;DHT22;3478;51.462;7.338;2023-09-12T03:29:05;21.10;99.90
6879;DHT22;3478;51.462;7.338;2023-09-12T03:34:06;21.10;99.90
6879;DHT22;3478;51.462;7.338;2023-09-12T03:39:08;21.10;99.90
6879;DHT22;3478;51.462;7.338;2023-09-12T03:44:14;21.10;99.90
6879;DHT22;3478;51.462;7.338;2023-09-12T03:49:16;21.00;99.90
6879;DHT22;3478;51.462;7.338;2023-09-12T03:54:18;20.90;99.90
6879;DHT22;3478;51.462;7.338;2023-09-12T03:59:21;20.90;99.90
6879;DHT22;3478;51.462;7.338;2023-09-12T04:04:23;20.80;99.90
6879;DHT22;3478;51.462;7.338;2023-09-12T04:09:25;20.70;99.90
6879;DHT22;3478;51.462;7.338;2023-09-12T04:14:29;20.50;99.90
6879;DHT22;3478;51.462;7.338;2023-09-12T04:19:31;20.40;99.90
6879;DHT22;3478;51.462;7.338;2023-09-12T04:24:33;20.30;99.90
6879;DHT22;3478;51.462;7.338;2023-09-12T04:29:36;20.30;99.90
6879;DHT22;3478;51.462;7.338;2023-09-12T04:34:38;20.30;99.90
6879;DHT22;3478;51.462;7.338;2023-09-12T04:39:40;20.30;99.90
6879;DHT22;3478;51.462;7.338;2023-09-12T04:44:43;20.30;99.90
6879;DHT22;3478;51.462;7.338;2023-09-12T04:49:45;20.20;99.90
6879;DHT22;3478;51.462;7.338;2023-09-12T04:54:47;20.30;99.90
6879;DHT22;3478;51.462;7.338;2023-09-12T04:59:51;20.30;99.90
6879;DHT22;3478;51.462;7.338;2023-09-12T05:04:53;20.30;99.90
6879;DHT22;3478;51.462;7.338;2023-09-12T05:09:54;20.40;99.90
6879;DHT22;3478;51.462;7.338;2023-09-12T05:14:58;20.40;99.90
6879;DHT22;3478;51.462;7.338;2023-09-12T05:20:00;20.50;99.90
6879;DHT22;3478;51.462;7.338;2023-09-12T05:25:02;20.60;99.90
6879;DHT22;3478;51.462;7.338;2023-09-12T05:30:06;20.60;99.90
6879;DHT22;3478;51.462;7.338;2023-09-12T05:35:08;20.70;99.90
6879;DHT22;3478;51.462;7.338;2023-09-12T05:40:10;20.70;99.90
6879;DHT22;3478;51.462;7.338;2023-09-12T05:45:13;20.60;99.90
6879;DHT22;3478;51.462;7.338;2023-09-12T05:50:16;20.70;99.90
6879;DHT22;3478;51.462;7.338;2023-09-12T05:55:18;20.60;99.90
6879;DHT22;3478;51.462;7.338;2023-09-12T06:00:21;20.60;99.90
6879;DHT22;3478;51.462;7.338;2023-09-12T06:05:23;20.70;99.90
6879;DHT22;3478;51.462;7.338;2023-09-12T06:10:25;20.60;99.90
6879;DHT22;3478;51.462;7.338;2023-09-12T06:15:28;20.60;99.90
6879;DHT22;3478;51.462;7.338;2023-09-12T06:20:30;20.60;99.90
6879;DHT22;3478;51.462;7.338;2023-09-12T06:25:32;20.60;99.90
6879;DHT22;3478;51.462;7.338;2023-09-12T06:30:37;20.80;99.90
6879;DHT22;3478;51.462;7.338;2023-09-12T06:35:39;20.90;99.90
6879;DHT22;3478;51.462;7.338;2023-09-12T06:40:42;21.20;99.90
6879;DHT22;3478;51.462;7.338;2023-09-12T06:45:45;21.30;99.90
6879;DHT22;3478;51.462;7.338;2023-09-12T06:50:48;20.90;99.90
6879;DHT22;3478;51.462;7.338;2023-09-12T06:55:51;20.40;99.90
6879;DHT22;3478;51.462;7.338;2023-09-12T07:00:54;20.30;99.90
6879;DHT22;3478;51.462;7.338;2023-09-12T07:05:56;20.30;99.90
6879;DHT22;3478;51.462;7.338;2023-09-12T07:10:58;20.40;99.90
6879;DHT22;3478;51.462;7.338;2023-09-12T07:16:07;20.60;99.90
6879;DHT22;3478;51.462;7.338;2023-09-12T07:21:09;20.50;99.90
6879;DHT22;3478;51.462;7.338;2023-09-12T07:26:12;20.60;99.90
6879;DHT22;3478;51.462;7.338;2023-09-12T07:31:16;20.60;99.90
6879;DHT22;3478;51.462;7.338;2023-09-12T07:36:18;20.50;99.90
6879;DHT22;3478;51.462;7.338;2023-09-12T07:41:20;20.70;99.90
6879;DHT22;3478;51.462;7.338;2023-09-12T07:46:23;20.60;99.90
6879;DHT22;3478;51.462;7.338;2023-09-12T07:51:25;20.70;99.90
6879;DHT22;3478;51.462;7.338;2023-09-12T07:56:27;20.70;99.90
6879;DHT22;3478;51.462;7.338;2023-09-12T08:01:31;20.90;99.90
6879;DHT22;3478;51.462;7.338;2023-09-12T08:06:33;21.30;99.90
6879;DHT22;3478;51.462;7.338;2023-09-12T08:11:35;21.50;99.90
6879;DHT22;3478;51.462;7.338;2023-09-12T08:16:38;21.70;99.90
6879;DHT22;3478;51.462;7.338;2023-09-12T08:21:40;21.90;99.90
6879;DHT22;3478;51.462;7.338;2023-09-12T08:26:42;22.00;99.90
6879;DHT22;3478;51.462;7.338;2023-09-12T08:31:45;22.20;99.90
6879;DHT22;3478;51.462;7.338;2023-09-12T08:36:47;22.40;99.90
6879;DHT22;3478;51.462;7.338;2023-09-12T08:41:49;22.40;99.90
6879;DHT22;3478;51.462;7.338;2023-09-12T08:46:52;22.30;99.90
6879;DHT22;3478;51.462;7.338;2023-09-12T08:51:54;22.40;99.90
6879;DHT22;3478;51.462;7.338;2023-09-12T08:56:56;22.30;99.90
6879;DHT22;3478;51.462;7.338;2023-09-12T09:02:00;22.20;99.90
6879;DHT22;3478;51.462;7.338;2023-09-12T09:07:03;22.20;99.90
6879;DHT22;3478;51.462;7.338;2023-09-12T09:12:07;22.40;99.90
6879;DHT22;3478;51.462;7.338;2023-09-12T09:17:10;22.30;99.90
6879;DHT22;3478;51.462;7.338;2023-09-12T09:22:14;22.10;99.90
6879;DHT22;3478;51.462;7.338;2023-09-12T09:27:32;22.20;99.90
6879;DHT22;3478;51.462;7.338;2023-09-12T09:32:37;22.10;99.90
6879;DHT22;3478;51.462;7.338;2023-09-12T09:37:39;22.30;99.90
6879;DHT22;3478;51.462;7.338;2023-09-12T09:42:40;22.70;99.90
6879;DHT22;3478;51.462;7.338;2023-09-12T09:47:44;23.20;99.90
6879;DHT22;3478;51.462;7.338;2023-09-12T09:52:53;23.80;99.90
6879;DHT22;3478;51.462;7.338;2023-09-12T09:57:56;24.20;99.90
6879;DHT22;3478;51.462;7.338;2023-09-12T10:02:59;24.70;99.90
6879;DHT22;3478;51.462;7.338;2023-09-12T10:08:06;25.10;99.90
6879;DHT22;3478;51.462;7.338;2023-09-12T10:13:10;25.50;99.90
6879;DHT22;3478;51.462;7.338;2023-09-12T10:18:17;25.80;99.90
6879;DHT22;3478;51.462;7.338;2023-09-12T10:23:25;26.40;99.90
6879;DHT22;3478;51.462;7.338;2023-09-12T10:28:29;27.00;99.90
6879;DHT22;3478;51.462;7.338;2023-09-12T10:33:32;27.10;99.90
6879;DHT22;3478;51.462;7.338;2023-09-12T10:38:38;27.40;99.90
6879;DHT22;3478;51.462;7.338;2023-09-12T10:43:43;27.70;99.90
6879;DHT22;3478;51.462;7.338;2023-09-12T10:48:48;27.80;99.90
6879;DHT22;3478;51.462;7.338;2023-09-12T10:53:50;28.30;99.90
6879;DHT22;3478;51.462;7.338;2023-09-12T10:59:09;28.90;99.90
6879;DHT22;3478;51.462;7.338;2023-09-12T11:04:33;29.80;99.90
6879;DHT22;3478;51.462;7.338;2023-09-12T11:09:37;30.70;99.90
6879;DHT22;3478;51.462;7.338;2023-09-12T11:15:03;31.20;97.60
6879;DHT22;3478;51.462;7.338;2023-09-12T11:20:08;31.70;95.60
6879;DHT22;3478;51.462;7.338;2023-09-12T11:25:19;31.90;94.10
6879;DHT22;3478;51.462;7.338;2023-09-12T11:30:24;32.10;93.70
6879;DHT22;3478;51.462;7.338;2023-09-12T11:35:28;32.10;92.20
6879;DHT22;3478;51.462;7.338;2023-09-12T11:40:42;30.70;91.60
6879;DHT22;3478;51.462;7.338;2023-09-12T11:45:45;29.10;95.50
6879;DHT22;3478;51.462;7.338;2023-09-12T11:50:53;28.60;98.00
6879;DHT22;3478;51.462;7.338;2023-09-12T11:55:57;28.10;98.10
6879;DHT22;3478;51.462;7.338;2023-09-12T12:00:59;28.10;99.90
6879;DHT22;3478;51.462;7.338;2023-09-12T12:06:03;28.60;99.90
6879;DHT22;3478;51.462;7.338;2023-09-12T12:11:06;29.10;98.90
6879;DHT22;3478;51.462;7.338;2023-09-12T12:16:15;28.40;99.90
6879;DHT22;3478;51.462;7.338;2023-09-12T12:21:18;29.30;99.30
6879;DHT22;3478;51.462;7.338;2023-09-12T12:26:20;31.00;97.60
6879;DHT22;3478;51.462;7.338;2023-09-12T12:31:23;32.20;93.90
6879;DHT22;3478;51.462;7.338;2023-09-12T12:36:26;32.40;92.00
6879;DHT22;3478;51.462;7.338;2023-09-12T12:41:29;32.00;92.60
6879;DHT22;3478;51.462;7.338;2023-09-12T12:46:31;33.10;91.20
6879;DHT22;3478;51.462;7.338;2023-09-12T12:51:34;33.90;89.30
6879;DHT22;3478;51.462;7.338;2023-09-12T12:56:36;32.80;87.40
6879;DHT22;3478;51.462;7.338;2023-09-12T13:01:39;32.10;90.60
6879;DHT22;3478;51.462;7.338;2023-09-12T13:06:42;32.70;89.60
6879;DHT22;3478;51.462;7.338;2023-09-12T13:11:45;33.90;87.20
6879;DHT22;3478;51.462;7.338;2023-09-12T13:16:47;34.00;85.70
6879;DHT22;3478;51.462;7.338;2023-09-12T13:21:50;35.10;78.00
6879;DHT22;3478;51.462;7.338;2023-09-12T13:26:52;36.40;76.20
6879;DHT22;3478;51.462;7.338;2023-09-12T13:31:54;37.60;71.50
6879;DHT22;3478;51.462;7.338;2023-09-12T13:36:57;37.30;67.10
6879;DHT22;3478;51.462;7.338;2023-09-12T13:41:59;37.90;66.90
6879;DHT22;3478;51.462;7.338;2023-09-12T13:47:03;38.00;63.60
6879;DHT22;3478;51.462;7.338;2023-09-12T13:52:07;38.50;61.70
6879;DHT22;3478;51.462;7.338;2023-09-12T13:57:08;38.90;58.90
6879;DHT22;3478;51.462;7.338;2023-09-12T14:02:10;39.00;60.60
6879;DHT22;3478;51.462;7.338;2023-09-12T14:07:13;39.10;58.10
6879;DHT22;3478;51.462;7.338;2023-09-12T14:12:15;38.00;59.30
6879;DHT22;3478;51.462;7.338;2023-09-12T14:17:18;38.10;58.60
6879;DHT22;3478;51.462;7.338;2023-09-12T14:22:21;39.00;57.00
6879;DHT22;3478;51.462;7.338;2023-09-12T14:27:23;39.10;56.70
6879;DHT22;3478;51.462;7.338;2023-09-12T14:32:24;39.20;55.50
6879;DHT22;3478;51.462;7.338;2023-09-12T14:37:28;39.30;55.90
6879;DHT22;3478;51.462;7.338;2023-09-12T14:42:30;39.90;54.70
6879;DHT22;3478;51.462;7.338;2023-09-12T14:47:32;39.80;53.00
6879;DHT22;3478;51.462;7.338;2023-09-12T14:52:35;38.80;53.50
6879;DHT22;3478;51.462;7.338;2023-09-12T14:57:38;38.90;54.50
6879;DHT22;3478;51.462;7.338;2023-09-12T15:02:40;38.60;53.60
6879;DHT22;3478;51.462;7.338;2023-09-12T15:07:44;37.70;53.80
6879;DHT22;3478;51.462;7.338;2023-09-12T15:12:46;35.80;56.80
6879;DHT22;3478;51.462;7.338;2023-09-12T15:17:48;33.70;61.20
6879;DHT22;3478;51.462;7.338;2023-09-12T15:22:51;33.40;63.80
6879;DHT22;3478;51.462;7.338;2023-09-12T15:27:53;32.90;65.70
6879;DHT22;3478;51.462;7.338;2023-09-12T15:32:55;32.50;67.30
6879;DHT22;3478;51.462;7.338;2023-09-12T15:37:58;31.90;69.00
6879;DHT22;3478;51.462;7.338;2023-09-12T15:43:00;30.90;72.10
6879;DHT22;3478;51.462;7.338;2023-09-12T15:48:04;31.50;74.00
6879;DHT22;3478;51.462;7.338;2023-09-12T15:53:08;33.00;70.80
6879;DHT22;3478;51.462;7.338;2023-09-12T15:58:10;33.60;68.60
6879;DHT22;3478;51.462;7.338;2023-09-12T16:03:11;32.40;69.60
6879;DHT22;3478;51.462;7.338;2023-09-12T16:08:15;31.30;73.30
6879;DHT22;3478;51.462;7.338;2023-09-12T16:13:17;30.50;76.80
6879;DHT22;3478;51.462;7.338;2023-09-12T16:18:19;30.30;78.50
6879;DHT22;3478;51.462;7.338;2023-09-12T16:23:22;31.20;76.30
6879;DHT22;3478;51.462;7.338;2023-09-12T16:28:25;31.80;75.10
6879;DHT22;3478;51.462;7.338;2023-09-12T16:33:26;31.70;73.90
6879;DHT22;3478;51.462;7.338;2023-09-12T16:38:34;31.30;74.90
6879;DHT22;3478;51.462;7.338;2023-09-12T16:43:36;30.40;77.40
6879;DHT22;3478;51.462;7.338;2023-09-12T16:48:39;29.40;80.50
6879;DHT22;3478;51.462;7.338;2023-09-12T16:53:43;28.40;85.80
6879;DHT22;3478;51.462;7.338;2023-09-12T16:58:45;27.60;91.00
6879;DHT22;3478;51.462;7.338;2023-09-12T17:03:58;27.10;94.30
6879;DHT22;3478;51.462;7.338;2023-09-12T17:09:01;26.60;96.90
6879;DHT22;3478;51.462;7.338;2023-09-12T17:14:03;26.30;99.10
6879;DHT22;3478;51.462;7.338;2023-09-12T17:19:05;25.90;99.90
6879;DHT22;3478;51.462;7.338;2023-09-12T17:24:09;25.60;99.90
6879;DHT22;3478;51.462;7.338;2023-09-12T17:29:11;25.40;99.90
6879;DHT22;3478;51.462;7.338;2023-09-12T17:34:14;25.20;99.90
6879;DHT22;3478;51.462;7.338;2023-09-12T17:39:17;25.00;99.90
6879;DHT22;3478;51.462;7.338;2023-09-12T17:44:20;24.80;99.90
6879;DHT22;3478;51.462;7.338;2023-09-12T17:49:21;24.70;99.90
6879;DHT22;3478;51.462;7.338;2023-09-12T17:54:25;24.60;99.90
6879;DHT22;3478;51.462;7.338;2023-09-12T17:59:26;24.50;99.90
6879;DHT22;3478;51.462;7.338;2023-09-12T18:04:29;24.40;99.90
6879;DHT22;3478;51.462;7.338;2023-09-12T18:09:32;24.20;99.90
6879;DHT22;3478;51.462;7.338;2023-09-12T18:14:34;24.20;99.90
6879;DHT22;3478;51.462;7.338;2023-09-12T18:19:36;24.00;99.90
6879;DHT22;3478;51.462;7.338;2023-09-12T18:24:39;24.00;99.90
6879;DHT22;3478;51.462;7.338;2023-09-12T18:29:41;23.90;99.90
6879;DHT22;3478;51.462;7.338;2023-09-12T18:34:43;23.80;99.90
6879;DHT22;3478;51.462;7.338;2023-09-12T18:39:46;23.80;99.90
6879;DHT22;3478;51.462;7.338;2023-09-12T18:44:48;23.70;99.90
6879;DHT22;3478;51.462;7.338;2023-09-12T18:49:50;23.60;99.90
6879;DHT22;3478;51.462;7.338;2023-09-12T18:54:53;23.20;99.90
6879;DHT22;3478;51.462;7.338;2023-09-12T18:59:56;23.00;99.90
6879;DHT22;3478;51.462;7.338;2023-09-12T19:04:58;22.90;99.90
6879;DHT22;3478;51.462;7.338;2023-09-12T19:10:02;22.90;99.90
6879;DHT22;3478;51.462;7.338;2023-09-12T19:15:05;22.80;99.90
6879;DHT22;3478;51.462;7.338;2023-09-12T19:20:08;22.80;99.90
6879;DHT22;3478;51.462;7.338;2023-09-12T19:25:13;22.80;99.90
6879;DHT22;3478;51.462;7.338;2023-09-12T19:30:15;22.80;99.90
6879;DHT22;3478;51.462;7.338;2023-09-12T19:35:17;22.70;99.90
6879;DHT22;3478;51.462;7.338;2023-09-12T19:40:20;22.40;99.90
6879;DHT22;3478;51.462;7.338;2023-09-12T19:45:22;22.40;99.90
6879;DHT22;3478;51.462;7.338;2023-09-12T19:50:24;22.30;99.90
6879;DHT22;3478;51.462;7.338;2023-09-12T19:55:27;22.30;99.90
6879;DHT22;3478;51.462;7.338;2023-09-12T20:00:29;22.20;99.90
6879;DHT22;3478;51.462;7.338;2023-09-12T20:05:31;22.20;99.90
6879;DHT22;3478;51.462;7.338;2023-09-12T20:10:35;22.10;99.90
6879;DHT22;3478;51.462;7.338;2023-09-12T20:15:37;22.10;99.90
6879;DHT22;3478;51.462;7.338;2023-09-12T20:20:40;22.20;99.90
6879;DHT22;3478;51.462;7.338;2023-09-12T20:25:46;22.20;99.90
6879;DHT22;3478;51.462;7.338;2023-09-12T20:30:51;22.20;99.90
6879;DHT22;3478;51.462;7.338;2023-09-12T20:35:53;22.30;99.90
6879;DHT22;3478;51.462;7.338;2023-09-12T20:40:56;22.30;99.90
6879;DHT22;3478;51.462;7.338;2023-09-12T20:45:58;22.30;99.90
6879;DHT22;3478;51.462;7.338;2023-09-12T20:51:00;22.20;99.90
6879;DHT22;3478;51.462;7.338;2023-09-12T20:56:03;22.20;99.90
6879;DHT22;3478;51.462;7.338;2023-09-12T21:01:05;22.20;99.90
6879;DHT22;3478;51.462;7.338;2023-09-12T21:06:07;22.10;99.90
6879;DHT22;3478;51.462;7.338;2023-09-12T21:11:10;22.00;99.90
6879;DHT22;3478;51.462;7.338;2023-09-12T21:16:12;21.90;99.90
6879;DHT22;3478;51.462;7.338;2023-09-12T21:21:14;21.90;99.90
6879;DHT22;3478;51.462;7.338;2023-09-12T21:26:17;21.90;99.90
6879;DHT22;3478;51.462;7.338;2023-09-12T21:31:19;21.90;99.90
6879;DHT22;3478;51.462;7.338;2023-09-12T21:36:21;21.90;99.90
6879;DHT22;3478;51.462;7.338;2023-09-12T21:41:24;21.80;99.90
6879;DHT22;3478;51.462;7.338;2023-09-12T21:46:26;21.60;99.90
6879;DHT22;3478;51.462;7.338;2023-09-12T21:51:27;21.50;99.90
6879;DHT22;3478;51.462;7.338;2023-09-12T21:56:31;21.50;99.90
6879;DHT22;3478;51.462;7.338;2023-09-12T22:01:32;21.40;99.90
6879;DHT22;3478;51.462;7.338;2023-09-12T22:06:34;21.40;99.90
6879;DHT22;3478;51.462;7.338;2023-09-12T22:11:37;21.50;99.90
6879;DHT22;3478;51.462;7.338;2023-09-12T22:16:39;21.50;99.90
6879;DHT22;3478;51.462;7.338;2023-09-12T22:21:41;21.50;99.90
6879;DHT22;3478;51.462;7.338;2023-09-12T22:26:44;21.50;99.90
6879;DHT22;3478;51.462;7.338;2023-09-12T22:31:46;21.50;99.90
6879;DHT22;3478;51.462;7.338;2023-09-12T22:36:48;21.50;99.90
6879;DHT22;3478;51.462;7.338;2023-09-12T22:41:51;21.50;99.90
6879;DHT22;3478;51.462;7.338;2023-09-12T22:46:53;21.50;99.90
6879;DHT22;3478;51.462;7.338;2023-09-12T22:51:55;21.50;99.90
6879;DHT22;3478;51.462;7.338;2023-09-12T22:56:59;21.50;99.90
6879;DHT22;3478;51.462;7.338;2023-09-12T23:02:01;21.50;99.90
6879;DHT22;3478;51.462;7.338;2023-09-12T23:07:03;21.30;99.90
6879;DHT22;3478;51.462;7.338;2023-09-12T23:12:07;21.20;99.90
6879;DHT22;3478;51.462;7.338;2023-09-12T23:17:09;21.10;99.90
6879;DHT22;3478;51.462;7.338;2023-09-12T23:22:11;21.00;99.90
6879;DHT22;3478;51.462;7.338;2023-09-12T23:27:14;21.00;99.90
6879;DHT22;3478;51.462;7.338;2023-09-12T23:32:16;20.90;99.90
6879;DHT22;3478;51.462;7.338;2023-09-12T23:37:19;20.80;99.90
6879;DHT22;3478;51.462;7.338;2023-09-12T23:42:22;20.70;99.90
6879;DHT22;3478;51.462;7.338;2023-09-12T23:47:24;20.70;99.90
6879;DHT22;3478;51.462;7.338;2023-09-12T23:52:26;20.60;99.90
6879;DHT22;3478;51.462;7.338;2023-09-12T23:57:30;20.60;99.90
